Wetterstation Vordersexau
Wetterdaten: Woche 27.07.15 - 02.08.15 (KW31)
Datum Zeit Temp. A. Feuchte A. Luftdruck Regen Wind Richtung Taupunkt Windchill Windben
27.07.2015 00:00 14,4 C 83 % 1007,0 hPa 0,4 l/m 0,0 km/h NO 11,5 C 14,4 C 0,0 km/h
27.07.2015 01:00 14,5 C 83 % 1006,6 hPa 0,0 l/m 0,0 km/h S-SW 11,6 C 14,5 C 0,0 km/h
27.07.2015 02:00 14,9 C 83 % 1006,1 hPa 0,0 l/m 0,0 km/h NW 12,0 C 14,9 C 0,0 km/h
27.07.2015 03:00 15,6 C 83 % 1005,6 hPa 0,0 l/m 15,6 km/h S 12,7 C 11,7 C 8,6 km/h
27.07.2015 04:00 15,4 C 83 % 1005,4 hPa 0,0 l/m 0,0 km/h W-SW 12,5 C 15,4 C 0,0 km/h
27.07.2015 05:00 16,2 C 83 % 1005,4 hPa 0,0 l/m 12,3 km/h W-SW 13,3 C 13,5 C 6,8 km/h
27.07.2015 06:00 17,0 C 81 % 1005,5 hPa 0,0 l/m 1,9 km/h S-SW 13,7 C 17,0 C 1,1 km/h
27.07.2015 07:00 17,3 C 80 % 1006,0 hPa 0,0 l/m 17,5 km/h W-SW 13,8 C 13,3 C 9,7 km/h
27.07.2015 08:00 17,3 C 78 % 1006,1 hPa 0,0 l/m 35,6 km/h W-SW 13,4 C 10,2 C 19,8 km/h
27.07.2015 09:00 19,7 C 76 % 1006,3 hPa 0,0 l/m 12,3 km/h W-NW 15,3 C 17,6 C 6,8 km/h
27.07.2015 10:00 18,9 C 71 % 1006,6 hPa 0,0 l/m 10,4 km/h W 13,5 C 17,3 C 5,8 km/h
27.07.2015 11:00 18,0 C 76 % 1006,8 hPa 0,0 l/m 18,8 km/h W 13,7 C 13,9 C 10,4 km/h
27.07.2015 12:00 19,7 C 69 % 1007,0 hPa 0,0 l/m 17,5 km/h W-SW 13,8 C 16,3 C 9,7 km/h
27.07.2015 13:00 20,6 C 70 % 1007,3 hPa 0,0 l/m 20,1 km/h S-SW 14,9 C 17,0 C 11,2 km/h
27.07.2015 14:00 22,2 C 59 % 1007,3 hPa 0,0 l/m 13,6 km/h W-NW 13,8 C 20,2 C 7,6 km/h
27.07.2015 15:00 23,5 C 49 % 1007,0 hPa 0,0 l/m 28,5 km/h W-SW 12,2 C 19,8 C 15,8 km/h
27.07.2015 16:00 23,6 C 48 % 1007,4 hPa 0,0 l/m 10,4 km/h NW 11,9 C 22,5 C 5,8 km/h
27.07.2015 17:00 26,1 C 41 % 1007,2 hPa 0,0 l/m 25,9 km/h NW 11,8 C 23,6 C 14,4 km/h
27.07.2015 18:00 26,2 C 39 % 1007,4 hPa 0,0 l/m 10,4 km/h W-NW 11,1 C 25,4 C 5,8 km/h
27.07.2015 19:00 25,1 C 39 % 1007,0 hPa 0,0 l/m 21,4 km/h W 10,2 C 22,6 C 11,9 km/h
27.07.2015 20:00 22,1 C 48 % 1007,1 hPa 0,0 l/m 0,0 km/h W-NW 10,6 C 22,1 C 0,0 km/h
27.07.2015 21:00 19,8 C 54 % 1007,4 hPa 0,0 l/m 0,0 km/h NW 10,2 C 19,8 C 0,0 km/h
27.07.2015 22:00 18,4 C 59 % 1007,7 hPa 0,0 l/m 5,2 km/h W-NW 10,2 C 18,4 C 2,9 km/h
27.07.2015 23:00 17,4 C 62 % 1007,8 hPa 0,0 l/m 0,0 km/h W 10,0 C 17,4 C 0,0 km/h
28.07.2015 00:00 17,9 C 63 % 1007,9 hPa 0,0 l/m 1,9 km/h W 10,8 C 17,9 C 1,1 km/h
28.07.2015 01:00 17,5 C 64 % 1007,7 hPa 0,0 l/m 0,0 km/h W-NW 10,6 C 17,5 C 0,0 km/h
28.07.2015 02:00 16,4 C 67 % 1007,8 hPa 0,0 l/m 0,0 km/h W 10,3 C 16,4 C 0,0 km/h
28.07.2015 03:00 15,6 C 71 % 1007,9 hPa 0,0 l/m 0,0 km/h W-SW 10,4 C 15,6 C 0,0 km/h
28.07.2015 04:00 17,2 C 68 % 1007,8 hPa 0,0 l/m 13,6 km/h W 11,2 C 14,3 C 7,6 km/h
28.07.2015 05:00 17,5 C 67 % 1008,0 hPa 0,0 l/m 7,1 km/h W-SW 11,3 C 17,2 C 4,0 km/h
28.07.2015 06:00 17,3 C 69 % 1008,1 hPa 0,0 l/m 24,0 km/h W 11,6 C 11,9 C 13,3 km/h
28.07.2015 07:00 17,5 C 69 % 1008,8 hPa 0,0 l/m 1,9 km/h W 11,7 C 17,5 C 1,1 km/h
28.07.2015 08:00 18,8 C 67 % 1009,0 hPa 0,0 l/m 14,9 km/h W 12,5 C 15,8 C 8,3 km/h
28.07.2015 09:00 18,8 C 65 % 1009,3 hPa 0,0 l/m 16,2 km/h W-SW 12,1 C 15,5 C 9,0 km/h
28.07.2015 10:00 19,3 C 62 % 1009,7 hPa 0,0 l/m 14,9 km/h W 11,8 C 16,4 C 8,3 km/h
28.07.2015 11:00 20,1 C 59 % 1009,5 hPa 0,0 l/m 16,2 km/h W-SW 11,8 C 17,1 C 9,0 km/h
28.07.2015 12:00 22,2 C 51 % 1009,2 hPa 0,0 l/m 21,4 km/h W 11,6 C 18,8 C 11,9 km/h
28.07.2015 13:00 24,2 C 45 % 1008,8 hPa 0,0 l/m 19,4 km/h SW 11,5 C 21,7 C 10,8 km/h
28.07.2015 14:00 24,6 C 42 % 1008,5 hPa 0,0 l/m 24,6 km/h W-NW 10,8 C 21,7 C 13,7 km/h
28.07.2015 15:00 24,6 C 37 % 1008,2 hPa 0,0 l/m 14,3 km/h W-SW 8,9 C 22,9 C 7,9 km/h
28.07.2015 16:00 26,4 C 34 % 1008,0 hPa 0,0 l/m 12,3 km/h NW 9,3 C 25,4 C 6,8 km/h
28.07.2015 17:00 25,2 C 36 % 1007,9 hPa 0,0 l/m 20,1 km/h W 9,1 C 22,9 C 11,2 km/h
28.07.2015 18:00 21,8 C 42 % 1008,0 hPa 0,0 l/m 8,4 km/h W-NW 8,3 C 21,1 C 4,7 km/h
28.07.2015 19:00 20,9 C 45 % 1008,1 hPa 0,0 l/m 7,1 km/h W-NW 8,5 C 20,6 C 4,0 km/h
28.07.2015 20:00 19,5 C 50 % 1008,6 hPa 0,0 l/m 0,0 km/h W 8,8 C 19,5 C 0,0 km/h
28.07.2015 21:00 18,4 C 57 % 1008,9 hPa 0,0 l/m 1,9 km/h N-NO 9,7 C 18,4 C 1,1 km/h
28.07.2015 22:00 17,4 C 58 % 1010,2 hPa 0,0 l/m 0,0 km/h S 9,1 C 17,4 C 0,0 km/h
28.07.2015 23:00 14,4 C 73 % 1011,2 hPa 0,0 l/m 0,0 km/h S 9,6 C 14,4 C 0,0 km/h
29.07.2015 00:00 14,1 C 78 % 1011,1 hPa 0,0 l/m 0,0 km/h SO 10,3 C 14,1 C 0,0 km/h
29.07.2015 01:00 13,3 C 80 % 1011,5 hPa 0,4 l/m 0,0 km/h O 9,9 C 13,3 C 0,0 km/h
29.07.2015 02:00 12,9 C 82 % 1011,0 hPa 0,4 l/m 0,0 km/h O-NO 9,9 C 12,9 C 0,0 km/h
29.07.2015 03:00 12,9 C 83 % 1010,7 hPa 0,0 l/m 0,0 km/h NO 10,1 C 12,9 C 0,0 km/h
29.07.2015 04:00 12,7 C 83 % 1010,2 hPa 0,0 l/m 0,0 km/h O-NO 9,9 C 12,7 C 0,0 km/h
29.07.2015 05:00 12,8 C 83 % 1010,0 hPa 0,0 l/m 1,9 km/h NO 10,0 C 12,8 C 1,1 km/h
29.07.2015 06:00 12,8 C 83 % 1009,3 hPa 0,0 l/m 0,0 km/h N-NO 10,0 C 12,8 C 0,0 km/h
29.07.2015 07:00 13,5 C 83 % 1009,1 hPa 0,0 l/m 0,0 km/h SO 10,7 C 13,5 C 0,0 km/h
29.07.2015 08:00 14,3 C 83 % 1008,6 hPa 0,0 l/m 0,0 km/h NO 11,5 C 14,3 C 0,0 km/h
29.07.2015 09:00 15,4 C 83 % 1008,5 hPa 0,0 l/m 0,0 km/h O-SO 12,5 C 15,4 C 0,0 km/h
29.07.2015 10:00 15,6 C 83 % 1008,2 hPa 0,0 l/m 0,0 km/h SO 12,7 C 15,6 C 0,0 km/h
29.07.2015 11:00 17,0 C 81 % 1008,0 hPa 0,0 l/m 0,0 km/h W-SW 13,7 C 17,0 C 0,0 km/h
29.07.2015 12:00 16,4 C 81 % 1008,4 hPa 0,0 l/m 1,3 km/h W 13,1 C 16,4 C 0,7 km/h
29.07.2015 13:00 17,4 C 80 % 1008,3 hPa 0,0 l/m 0,0 km/h NW 13,9 C 17,4 C 0,0 km/h
29.07.2015 14:00 16,4 C 81 % 1008,6 hPa 0,0 l/m 4,5 km/h N-NO 13,1 C 16,4 C 2,5 km/h
29.07.2015 15:00 15,6 C 83 % 1009,3 hPa 1,2 l/m 1,9 km/h NO 12,7 C 15,6 C 1,1 km/h
29.07.2015 16:00 15,8 C 82 % 1010,1 hPa 0,0 l/m 3,9 km/h N-NO 12,7 C 15,8 C 2,2 km/h
29.07.2015 17:00 17,5 C 78 % 1011,0 hPa 0,0 l/m 0,0 km/h O-SO 13,6 C 17,5 C 0,0 km/h
29.07.2015 18:00 18,6 C 71 % 1011,3 hPa 0,0 l/m 0,0 km/h W-NW 13,2 C 18,6 C 0,0 km/h
29.07.2015 19:00 22,8 C 53 % 1011,3 hPa 0,0 l/m 13,0 km/h W-NW 12,7 C 21,0 C 7,2 km/h
29.07.2015 20:00 18,7 C 58 % 1011,6 hPa 0,0 l/m 0,0 km/h S 10,3 C 18,7 C 0,0 km/h
29.07.2015 21:00 14,9 C 73 % 1012,2 hPa 0,0 l/m 0,0 km/h O-SO 10,1 C 14,9 C 0,0 km/h
29.07.2015 22:00 12,1 C 80 % 1012,8 hPa 0,0 l/m 0,0 km/h O-SO 8,8 C 12,1 C 0,0 km/h
29.07.2015 23:00 10,6 C 83 % 1013,1 hPa 0,0 l/m 0,0 km/h SO 7,8 C 10,6 C 0,0 km/h
30.07.2015 00:00 9,8 C 84 % 1013,5 hPa 0,0 l/m 0,0 km/h SO 7,2 C 9,8 C 0,0 km/h
30.07.2015 01:00 9,4 C 84 % 1013,7 hPa 0,0 l/m 7,8 km/h SO 6,8 C 8,4 C 4,3 km/h
30.07.2015 02:00 9,1 C 84 % 1013,5 hPa 0,0 l/m 0,0 km/h S-SO 6,5 C 9,1 C 0,0 km/h
30.07.2015 03:00 8,8 C 83 % 1013,6 hPa 0,0 l/m 3,9 km/h S-SO 6,1 C 8,8 C 2,2 km/h
30.07.2015 04:00 8,5 C 83 % 1013,4 hPa 0,0 l/m 0,0 km/h SO 5,8 C 8,5 C 0,0 km/h
30.07.2015 05:00 8,9 C 82 % 1013,3 hPa 0,0 l/m 0,0 km/h O-SO 6,0 C 8,9 C 0,0 km/h
30.07.2015 06:00 8,4 C 82 % 1013,4 hPa 0,0 l/m 0,0 km/h S-SO 5,5 C 8,4 C 0,0 km/h
30.07.2015 07:00 9,6 C 80 % 1013,6 hPa 0,0 l/m 0,0 km/h S-SO 6,3 C 9,6 C 0,0 km/h
30.07.2015 08:00 12,8 C 78 % 1013,8 hPa 0,0 l/m 0,0 km/h W-NW 9,1 C 12,8 C 0,0 km/h
30.07.2015 09:00 17,4 C 74 % 1014,0 hPa 0,0 l/m 0,0 km/h NO 12,7 C 17,4 C 0,0 km/h
30.07.2015 10:00 18,6 C 70 % 1014,0 hPa 0,0 l/m 1,3 km/h S-SW 13,0 C 18,6 C 0,7 km/h
30.07.2015 11:00 23,9 C 56 % 1013,8 hPa 0,0 l/m 2,6 km/h NO 14,6 C 23,9 C 1,4 km/h
30.07.2015 12:00 20,9 C 54 % 1013,9 hPa 0,0 l/m 5,2 km/h N-NW 11,2 C 20,9 C 2,9 km/h
30.07.2015 13:00 22,3 C 49 % 1013,8 hPa 0,0 l/m 10,4 km/h NO 11,1 C 21,1 C 5,8 km/h
30.07.2015 14:00 22,5 C 45 % 1013,7 hPa 0,0 l/m 0,0 km/h N-NW 10,0 C 22,5 C 0,0 km/h
30.07.2015 15:00 27,1 C 37 % 1013,3 hPa 0,0 l/m 0,0 km/h N-NO 11,1 C 27,1 C 0,0 km/h
30.07.2015 16:00 24,2 C 39 % 1013,1 hPa 0,0 l/m 0,0 km/h NW 9,4 C 24,2 C 0,0 km/h
30.07.2015 17:00 26,4 C 35 % 1013,1 hPa 0,0 l/m 9,1 km/h NO 9,7 C 25,9 C 5,0 km/h
30.07.2015 18:00 23,9 C 38 % 1013,3 hPa 0,0 l/m 6,5 km/h N-NO 8,7 C 23,9 C 3,6 km/h
30.07.2015 19:00 21,6 C 41 % 1013,3 hPa 0,0 l/m 0,0 km/h N-NO 7,8 C 21,6 C 0,0 km/h
30.07.2015 20:00 20,2 C 46 % 1013,8 hPa 0,0 l/m 0,0 km/h NO 8,2 C 20,2 C 0,0 km/h
30.07.2015 21:00 18,1 C 53 % 1014,4 hPa 0,0 l/m 0,0 km/h O-NO 8,4 C 18,1 C 0,0 km/h
30.07.2015 22:00 15,5 C 62 % 1014,9 hPa 0,0 l/m 0,0 km/h O-SO 8,3 C 15,5 C 0,0 km/h
30.07.2015 23:00 15,2 C 59 % 1015,7 hPa 0,0 l/m 0,0 km/h N-NO 7,2 C 15,2 C 0,0 km/h
31.07.2015 00:00 11,8 C 68 % 1016,1 hPa 0,0 l/m 0,0 km/h N-NO 6,1 C 11,8 C 0,0 km/h
31.07.2015 01:00 9,9 C 75 % 1016,3 hPa 0,0 l/m 0,0 km/h SO 5,7 C 9,9 C 0,0 km/h
31.07.2015 02:00 9,3 C 79 % 1016,3 hPa 0,0 l/m 0,0 km/h O 5,8 C 9,3 C 0,0 km/h
31.07.2015 03:00 9,0 C 81 % 1016,2 hPa 0,0 l/m 0,0 km/h O-SO 5,9 C 9,0 C 0,0 km/h
31.07.2015 04:00 8,2 C 82 % 1016,3 hPa 0,0 l/m 0,0 km/h NO 5,3 C 8,2 C 0,0 km/h
31.07.2015 05:00 7,6 C 83 % 1016,1 hPa 0,0 l/m 0,0 km/h NO 4,9 C 7,6 C 0,0 km/h
31.07.2015 06:00 6,6 C 84 % 1015,9 hPa 0,0 l/m 0,0 km/h NO 4,1 C 6,6 C 0,0 km/h
31.07.2015 07:00 7,3 C 84 % 1015,8 hPa 0,0 l/m 0,0 km/h SO 4,8 C 7,3 C 0,0 km/h
31.07.2015 08:00 16,9 C 70 % 1016,0 hPa 0,0 l/m 0,0 km/h W-NW 11,4 C 16,9 C 0,0 km/h
31.07.2015 09:00 20,6 C 54 % 1015,8 hPa 0,0 l/m 0,0 km/h NW 11,0 C 20,6 C 0,0 km/h
31.07.2015 10:00 22,2 C 50 % 1015,3 hPa 0,0 l/m 3,2 km/h S-SW 11,3 C 22,2 C 1,8 km/h
31.07.2015 11:00 24,5 C 46 % 1014,5 hPa 0,0 l/m 2,6 km/h SO 12,1 C 24,5 C 1,4 km/h
31.07.2015 12:00 26,1 C 41 % 1013,8 hPa 0,0 l/m 5,8 km/h N-NO 11,8 C 26,1 C 3,2 km/h
31.07.2015 13:00 25,6 C 35 % 1012,9 hPa 0,0 l/m 12,3 km/h N-NO 9,0 C 24,4 C 6,8 km/h
31.07.2015 14:00 28,5 C 34 % 1012,4 hPa 0,0 l/m 1,3 km/h N-NO 11,1 C 28,5 C 0,7 km/h
31.07.2015 15:00 28,5 C 33 % 1011,9 hPa 0,0 l/m 5,2 km/h N-NO 10,6 C 28,5 C 2,9 km/h
31.07.2015 16:00 27,6 C 35 % 1011,0 hPa 0,0 l/m 7,1 km/h O-SO 10,7 C 27,5 C 4,0 km/h
31.07.2015 17:00 30,7 C 29 % 1010,2 hPa 0,0 l/m 20,1 km/h O-NO 10,6 C 30,0 C 11,2 km/h
31.07.2015 18:00 32,1 C 27 % 1010,0 hPa 0,0 l/m 0,0 km/h N 10,7 C 32,1 C 0,0 km/h
31.07.2015 19:00 25,5 C 37 % 1009,8 hPa 0,0 l/m 0,0 km/h SW 9,7 C 25,5 C 0,0 km/h
31.07.2015 20:00 21,8 C 46 % 1009,9 hPa 0,0 l/m 0,0 km/h S-SW 9,7 C 21,8 C 0,0 km/h
31.07.2015 21:00 18,9 C 54 % 1010,4 hPa 0,0 l/m 0,0 km/h S-SW 9,4 C 18,9 C 0,0 km/h
31.07.2015 22:00 17,2 C 62 % 1010,7 hPa 0,0 l/m 0,0 km/h S-SW 9,9 C 17,2 C 0,0 km/h
31.07.2015 23:00 16,8 C 64 % 1010,6 hPa 0,0 l/m 0,0 km/h S-SW 10,0 C 16,8 C 0,0 km/h
01.08.2015 00:00 16,1 C 68 % 1010,3 hPa 0,0 l/m 0,0 km/h S 10,2 C 16,1 C 0,0 km/h
01.08.2015 01:00 15,9 C 70 % 1010,3 hPa 0,0 l/m 0,0 km/h S 10,4 C 15,9 C 0,0 km/h
01.08.2015 02:00 12,9 C 75 % 1010,1 hPa 0,0 l/m 0,0 km/h S 8,6 C 12,9 C 0,0 km/h
01.08.2015 03:00 12,6 C 78 % 1010,2 hPa 0,0 l/m 0,0 km/h S 8,9 C 12,6 C 0,0 km/h
01.08.2015 04:00 12,7 C 79 % 1009,8 hPa 0,0 l/m 0,0 km/h SO 9,2 C 12,7 C 0,0 km/h
01.08.2015 05:00 12,9 C 79 % 1010,1 hPa 0,0 l/m 0,0 km/h SO 9,3 C 12,9 C 0,0 km/h
01.08.2015 06:00 12,9 C 80 % 1010,5 hPa 0,0 l/m 0,0 km/h NO 9,5 C 12,9 C 0,0 km/h
01.08.2015 07:00 13,6 C 79 % 1011,2 hPa 0,0 l/m 0,0 km/h SO 10,0 C 13,6 C 0,0 km/h
01.08.2015 08:00 14,6 C 79 % 1012,2 hPa 0,0 l/m 0,0 km/h NO 11,0 C 14,6 C 0,0 km/h
01.08.2015 09:00 15,8 C 77 % 1012,4 hPa 0,0 l/m 0,0 km/h N-NO 11,8 C 15,8 C 0,0 km/h
01.08.2015 10:00 16,9 C 74 % 1012,7 hPa 0,0 l/m 0,0 km/h SO 12,2 C 16,9 C 0,0 km/h
01.08.2015 11:00 18,6 C 72 % 1013,1 hPa 0,0 l/m 0,0 km/h S 13,4 C 18,6 C 0,0 km/h
01.08.2015 12:00 23,3 C 56 % 1013,0 hPa 0,0 l/m 5,2 km/h S 14,0 C 23,3 C 2,9 km/h
01.08.2015 13:00 25,9 C 48 % 1012,4 hPa 0,0 l/m 10,4 km/h W-NW 14,0 C 25,1 C 5,8 km/h
01.08.2015 14:00 27,6 C 46 % 1012,4 hPa 0,0 l/m 15,6 km/h W-NW 14,9 C 26,4 C 8,6 km/h
01.08.2015 15:00 24,4 C 50 % 1012,4 hPa 0,0 l/m 8,4 km/h W 13,3 C 23,9 C 4,7 km/h
01.08.2015 16:00 22,9 C 56 % 1012,7 hPa 0,0 l/m 14,9 km/h W-SW 13,6 C 20,8 C 8,3 km/h
01.08.2015 17:00 22,7 C 57 % 1012,8 hPa 0,0 l/m 0,0 km/h S-SO 13,7 C 22,7 C 0,0 km/h
01.08.2015 18:00 21,1 C 66 % 1013,3 hPa 0,0 l/m 0,0 km/h S-SW 14,5 C 21,1 C 0,0 km/h
01.08.2015 19:00 20,6 C 70 % 1013,2 hPa 0,0 l/m 0,0 km/h S 14,9 C 20,6 C 0,0 km/h
01.08.2015 20:00 19,9 C 72 % 1013,5 hPa 0,0 l/m 0,0 km/h S 14,7 C 19,9 C 0,0 km/h
01.08.2015 21:00 18,8 C 75 % 1014,0 hPa 0,0 l/m 0,0 km/h S 14,3 C 18,8 C 0,0 km/h
01.08.2015 22:00 18,1 C 78 % 1014,9 hPa 0,0 l/m 0,0 km/h S 14,2 C 18,1 C 0,0 km/h
01.08.2015 23:00 17,1 C 81 % 1014,9 hPa 0,0 l/m 0,0 km/h O-NO 13,8 C 17,1 C 0,0 km/h
02.08.2015 00:00 15,5 C 82 % 1015,5 hPa 0,0 l/m 0,0 km/h O-NO 12,4 C 15,5 C 0,0 km/h
02.08.2015 01:00 14,3 C 83 % 1015,8 hPa 0,0 l/m 0,0 km/h O-SO 11,5 C 14,3 C 0,0 km/h
02.08.2015 02:00 13,8 C 83 % 1015,6 hPa 0,0 l/m 0,0 km/h SO 11,0 C 13,8 C 0,0 km/h
02.08.2015 03:00 13,3 C 83 % 1015,6 hPa 0,0 l/m 0,0 km/h SO 10,5 C 13,3 C 0,0 km/h
02.08.2015 04:00 12,9 C 82 % 1015,8 hPa 0,0 l/m 0,0 km/h S-SO 9,9 C 12,9 C 0,0 km/h
02.08.2015 05:00 12,3 C 82 % 1016,1 hPa 0,0 l/m 0,0 km/h S-SO 9,3 C 12,3 C 0,0 km/h
02.08.2015 06:00 11,8 C 81 % 1016,4 hPa 0,0 l/m 0,0 km/h SO 8,6 C 11,8 C 0,0 km/h
02.08.2015 07:00 12,3 C 81 % 1016,8 hPa 0,0 l/m 0,0 km/h S-SO 9,1 C 12,3 C 0,0 km/h
02.08.2015 08:00 19,2 C 81 % 1016,9 hPa 0,0 l/m 4,5 km/h S-SO 15,9 C 19,2 C 2,5 km/h
02.08.2015 09:00 25,6 C 61 % 1017,0 hPa 0,0 l/m 0,0 km/h S-SO 17,5 C 25,6 C 0,0 km/h
02.08.2015 10:00 26,4 C 52 % 1017,1 hPa 0,0 l/m 3,2 km/h N 15,7 C 26,4 C 1,8 km/h
02.08.2015 11:00 27,6 C 49 % 1017,3 hPa 0,0 l/m 0,0 km/h S 15,9 C 27,6 C 0,0 km/h
02.08.2015 12:00 28,1 C 49 % 1016,6 hPa 0,0 l/m 0,0 km/h NW 16,4 C 28,1 C 0,0 km/h
02.08.2015 13:00 29,3 C 45 % 1016,1 hPa 0,0 l/m 0,0 km/h W-NW 16,1 C 29,3 C 0,0 km/h
02.08.2015 14:00 30,8 C 42 % 1015,6 hPa 0,0 l/m 9,1 km/h N-NO 16,4 C 30,6 C 5,0 km/h
02.08.2015 15:00 31,3 C 40 % 1015,5 hPa 0,0 l/m 0,0 km/h SW 16,1 C 31,3 C 0,0 km/h
02.08.2015 16:00 33,6 C 35 % 1014,9 hPa 0,0 l/m 14,9 km/h S-SO 16,0 C 33,6 C 8,3 km/h
02.08.2015 17:00 33,2 C 36 % 1014,7 hPa 0,0 l/m 9,7 km/h NW 16,1 C 33,2 C 5,4 km/h
02.08.2015 18:00 39,9 C 27 % 1014,2 hPa 0,0 l/m 3,2 km/h NO 17,3 C 39,9 C 1,8 km/h
02.08.2015 19:00 36,9 C 26 % 1013,6 hPa 0,0 l/m 4,5 km/h NO 14,2 C 36,9 C 2,5 km/h
02.08.2015 20:00 28,8 C 37 % 1013,3 hPa 0,0 l/m 0,0 km/h O-NO 12,6 C 28,8 C 0,0 km/h
02.08.2015 21:00 23,4 C 50 % 1013,9 hPa 0,0 l/m 0,0 km/h NO 12,4 C 23,4 C 0,0 km/h
02.08.2015 22:00 20,3 C 59 % 1014,8 hPa 0,0 l/m 0,0 km/h S-SO 12,0 C 20,3 C 0,0 km/h
02.08.2015 23:00 18,4 C 66 % 1014,5 hPa 0,0 l/m 0,0 km/h SO 11,9 C 18,4 C 0,0 km/h
Min-Datum _ 31.07.15 02.08.15 27.07.15 - 27.07.15 - 31.07.15 31.07.15 27.07.15
_ Min-Zeit 06:04 19:04 04:04 - 00:04 - 06:04 06:04 00:04
Minimum _ 6,6 C 26 % 1005,4 hPa - 0,0 km/h - 4,1 C 6,6 C 0,0 km/h
Max-Datum _ 02.08.15 30.07.15 02.08.15 29.07.15 27.07.15 - 02.08.15 02.08.15 27.07.15
_ Max-Zeit 18:04 00:04 11:04 15:04 08:04 - 09:04 18:04 08:04
Maximum _ 39,9 C 84 % 1017,3 hPa 1,2 l/m 35,6 km/h
W-SW
- 17,5 C 39,9 C 19,8 km/h
W-SW
Durchschnitt _ 18,8 C 64 % 1011,5 hPa #2,5 l/m 4,5 km/h NO 11,1 C 18,2 C 2,5 km/h
www.sexauwetter.de